createdAt,value
2022-09-28T00:00:20.433Z,27.50
2022-09-28T00:00:47.947Z,27.60
2022-09-28T00:01:13.963Z,28.50
2022-09-28T00:01:36.603Z,27.90
2022-09-28T00:02:00.873Z,26.50
2022-09-28T00:02:24.391Z,24.20
2022-09-28T00:02:47.495Z,23.40
2022-09-28T00:03:12.877Z,24.50
2022-09-28T00:03:35.797Z,25.40
2022-09-28T00:03:59.644Z,25.10
2022-09-28T00:04:22.587Z,27.10
2022-09-28T00:04:45.286Z,28.50
2022-09-28T00:05:09.142Z,28.70
2022-09-28T00:05:31.921Z,27.20
2022-09-28T00:06:00.059Z,26.80
2022-09-28T00:06:24.573Z,27.30
2022-09-28T00:06:50.325Z,28.00
2022-09-28T00:07:13.032Z,26.90
2022-09-28T00:07:35.745Z,25.70
2022-09-28T00:08:01.158Z,24.50
2022-09-28T00:08:23.917Z,23.30
2022-09-28T00:08:46.726Z,23.40
2022-09-28T00:09:09.475Z,20.60
2022-09-28T00:09:32.156Z,17.30
2022-09-28T00:09:54.792Z,14.50
2022-09-28T00:10:17.756Z,11.10
2022-09-28T00:10:41.778Z,12.00
2022-09-28T00:11:05.252Z,14.10
2022-09-28T00:11:28.503Z,16.80
2022-09-28T00:11:51.194Z,17.00
2022-09-28T00:12:13.945Z,12.90
2022-09-28T00:12:36.722Z,5.80
2022-09-28T00:13:01.938Z,1.00
2022-09-28T00:13:24.748Z,1.00
2022-09-28T00:13:51.808Z,1.00
2022-09-28T00:14:15.433Z,1.00
2022-09-28T00:14:40.677Z,1.00
2022-09-28T00:15:03.649Z,1.00
2022-09-28T00:15:26.368Z,1.00
2022-09-28T00:15:58.608Z,1.00
2022-09-28T00:16:22.826Z,1.00
2022-09-28T00:16:45.940Z,1.00
2022-09-28T00:17:12.211Z,1.00
2022-09-28T00:17:35.887Z,1.00
2022-09-28T00:17:58.598Z,1.00
2022-09-28T00:18:23.604Z,1.00
2022-09-28T00:18:46.441Z,1.00
2022-09-28T00:19:11.352Z,1.00
2022-09-28T00:19:34.546Z,1.00
2022-09-28T00:19:58.252Z,1.00
2022-09-28T00:20:23.266Z,1.00
2022-09-28T00:20:45.891Z,1.00
2022-09-28T00:21:13.171Z,1.00
2022-09-28T00:21:36.636Z,1.00
2022-09-28T00:21:59.302Z,1.00
2022-09-28T00:22:21.966Z,1.00
2022-09-28T00:22:44.764Z,1.00
2022-09-28T00:23:10.640Z,1.30
2022-09-28T00:23:54.387Z,1.10
2022-09-28T00:24:17.430Z,1.00
2022-09-28T00:24:42.619Z,1.00
2022-09-28T00:25:09.418Z,1.00
2022-09-28T00:25:34.567Z,1.00
2022-09-28T00:25:57.193Z,1.00
2022-09-28T00:26:19.798Z,1.00
2022-09-28T00:26:45.117Z,1.00
2022-09-28T00:27:09.617Z,1.00
2022-09-28T00:27:32.332Z,1.00
2022-09-28T00:27:57.332Z,1.00
2022-09-28T00:28:19.992Z,1.00
2022-09-28T00:28:42.654Z,1.00
2022-09-28T00:29:07.506Z,1.00
2022-09-28T00:29:34.181Z,1.00
2022-09-28T00:29:57.276Z,1.00
2022-09-28T00:30:22.458Z,1.00
2022-09-28T00:30:49.883Z,1.00
2022-09-28T00:31:13.275Z,1.00
2022-09-28T00:31:38.411Z,1.00
2022-09-28T00:32:03.115Z,1.00
2022-09-28T00:32:30.451Z,1.00
2022-09-28T00:32:53.116Z,1.00
2022-09-28T00:33:15.896Z,1.00
2022-09-28T00:33:43.523Z,1.00
2022-09-28T00:34:06.335Z,1.00
2022-09-28T00:34:29.981Z,99.90
2022-09-28T00:34:55.163Z,99.90
2022-09-28T00:35:17.872Z,99.90
2022-09-28T00:35:40.972Z,99.90
2022-09-28T00:36:03.672Z,99.90
2022-09-28T00:36:29.388Z,99.90
2022-09-28T00:36:52.158Z,99.90
2022-09-28T00:37:15.262Z,99.90
2022-09-28T00:37:40.159Z,1.00
2022-09-28T00:38:04.027Z,1.00
2022-09-28T00:38:28.645Z,1.00
2022-09-28T00:38:52.394Z,1.00
2022-09-28T00:39:15.576Z,1.00
2022-09-28T00:39:40.564Z,1.00
2022-09-28T00:40:03.339Z,1.00
2022-09-28T00:40:29.335Z,1.00
2022-09-28T00:40:52.028Z,1.00
2022-09-28T00:41:17.099Z,1.00
2022-09-28T00:41:39.905Z,1.00
2022-09-28T00:42:11.041Z,1.00
2022-09-28T00:42:33.800Z,1.00
2022-09-28T00:42:56.645Z,1.00
2022-09-28T00:43:22.545Z,1.00
2022-09-28T00:43:45.431Z,1.00
2022-09-28T00:44:40.242Z,1.00
2022-09-28T00:45:02.964Z,1.00
2022-09-28T00:45:26.292Z,1.00
2022-09-28T00:45:51.925Z,1.00
2022-09-28T00:46:16.686Z,1.00
2022-09-28T00:46:39.484Z,1.00
2022-09-28T00:47:06.625Z,1.00
2022-09-28T00:47:49.938Z,1.00
2022-09-28T00:48:12.666Z,1.00
2022-09-28T00:48:36.959Z,1.00
2022-09-28T00:49:03.224Z,1.00
2022-09-28T00:49:28.924Z,1.00
2022-09-28T00:49:54.065Z,1.00
2022-09-28T00:50:22.920Z,1.00
2022-09-28T00:50:46.239Z,1.00
2022-09-28T00:51:10.459Z,1.00
2022-09-28T00:51:35.559Z,1.00
2022-09-28T00:51:58.224Z,1.00
2022-09-28T00:52:28.539Z,1.00
2022-09-28T00:52:53.477Z,1.00
2022-09-28T00:53:18.112Z,1.00
2022-09-28T00:53:43.323Z,1.00
2022-09-28T00:54:06.277Z,1.00
2022-09-28T00:54:28.956Z,1.00
2022-09-28T00:54:54.081Z,1.00
2022-09-28T00:55:18.166Z,1.00
2022-09-28T00:55:45.277Z,1.00
2022-09-28T00:56:09.452Z,1.00
2022-09-28T00:56:32.637Z,1.00
2022-09-28T00:56:57.496Z,1.00
2022-09-28T00:57:20.731Z,1.00
2022-09-28T00:57:47.665Z,1.00
2022-09-28T00:58:14.075Z,1.00
2022-09-28T00:58:41.504Z,1.00
2022-09-28T00:59:05.215Z,1.00
2022-09-28T00:59:30.975Z,1.00
2022-09-28T00:59:56.203Z,1.00
2022-09-28T01:00:22.256Z,1.00
2022-09-28T01:00:45.107Z,1.00
2022-09-28T01:01:08.602Z,1.00
2022-09-28T01:01:33.671Z,1.00
2022-09-28T01:01:59.153Z,1.00
2022-09-28T01:02:22.050Z,1.00
2022-09-28T01:02:48.809Z,1.00
2022-09-28T01:03:13.801Z,1.00
2022-09-28T01:03:38.803Z,1.00
2022-09-28T01:04:04.263Z,1.00
2022-09-28T01:04:29.871Z,1.00
2022-09-28T01:04:53.007Z,1.00
2022-09-28T01:05:18.938Z,1.00
2022-09-28T01:05:43.961Z,1.00
2022-09-28T01:06:07.110Z,1.00
2022-09-28T01:06:34.090Z,1.00
2022-09-28T01:06:56.924Z,1.00
2022-09-28T01:07:22.665Z,1.00
2022-09-28T01:07:47.859Z,1.00
2022-09-28T01:08:10.705Z,1.00
2022-09-28T01:08:35.684Z,1.00
2022-09-28T01:09:02.575Z,1.00
2022-09-28T01:09:25.838Z,1.00
2022-09-28T01:09:48.695Z,1.00
2022-09-28T01:10:13.861Z,1.00
2022-09-28T01:10:39.131Z,1.00
2022-09-28T01:11:01.775Z,1.00
2022-09-28T01:11:26.816Z,1.00
2022-09-28T01:11:49.592Z,1.00
2022-09-28T01:12:15.281Z,1.00
2022-09-28T01:12:37.916Z,1.00
2022-09-28T01:13:00.631Z,1.00
2022-09-28T01:13:25.517Z,1.00
2022-09-28T01:13:48.901Z,1.00
2022-09-28T01:14:12.511Z,1.00
2022-09-28T01:14:35.272Z,1.00
2022-09-28T01:15:00.386Z,1.00
2022-09-28T01:15:24.809Z,1.00
2022-09-28T01:15:50.270Z,1.00
2022-09-28T01:16:15.089Z,1.00
2022-09-28T01:16:41.080Z,1.00
2022-09-28T01:17:08.817Z,1.00
2022-09-28T01:17:34.821Z,1.00
2022-09-28T01:18:08.003Z,1.00
2022-09-28T01:18:36.725Z,1.00
2022-09-28T01:19:02.167Z,1.00
2022-09-28T01:19:38.245Z,1.00
2022-09-28T01:20:18.691Z,1.00
2022-09-28T01:20:54.625Z,1.00
2022-09-28T01:21:18.467Z,1.00
2022-09-28T01:21:49.641Z,1.00
2022-09-28T01:22:19.516Z,1.00
2022-09-28T01:22:57.115Z,1.00
2022-09-28T01:23:33.449Z,1.00
2022-09-28T01:24:11.757Z,1.00
2022-09-28T01:24:41.141Z,1.00
2022-09-28T01:25:07.890Z,1.00
2022-09-28T01:25:34.705Z,1.00
2022-09-28T01:26:09.242Z,1.00
2022-09-28T01:27:17.301Z,1.00
2022-09-28T01:27:41.442Z,1.00
2022-09-28T01:28:05.540Z,1.00
2022-09-28T01:28:30.776Z,1.00
2022-09-28T01:28:56.933Z,1.00
2022-09-28T01:29:37.210Z,1.00
2022-09-28T01:30:02.220Z,1.00
2022-09-28T01:30:25.098Z,1.00
2022-09-28T01:30:50.426Z,1.00
2022-09-28T01:31:13.815Z,1.00
2022-09-28T01:31:38.810Z,1.00
2022-09-28T01:32:07.097Z,1.00
2022-09-28T01:32:38.798Z,1.00
2022-09-28T01:33:03.891Z,1.00
2022-09-28T01:33:31.478Z,1.00
2022-09-28T01:33:55.845Z,1.00
2022-09-28T01:34:21.610Z,1.00
2022-09-28T01:34:52.361Z,1.00
2022-09-28T01:35:16.400Z,1.00
2022-09-28T01:35:44.497Z,1.00
2022-09-28T01:36:10.072Z,1.00
2022-09-28T01:36:35.370Z,1.00
2022-09-28T01:36:58.835Z,1.00
2022-09-28T01:37:24.486Z,1.00
2022-09-28T01:37:52.500Z,1.00
2022-09-28T01:38:17.495Z,1.00
2022-09-28T01:38:42.855Z,1.00
2022-09-28T01:39:08.164Z,1.00
2022-09-28T01:39:35.875Z,1.00
2022-09-28T01:39:58.549Z,1.00
2022-09-28T01:40:24.955Z,1.00
2022-09-28T01:40:47.738Z,1.00
2022-09-28T01:41:14.302Z,1.00
2022-09-28T01:41:40.651Z,1.00
2022-09-28T01:42:05.846Z,1.00
2022-09-28T01:42:32.327Z,1.00
2022-09-28T01:42:59.307Z,1.00
2022-09-28T01:43:26.320Z,1.00
2022-09-28T01:43:50.907Z,1.00
2022-09-28T01:44:18.342Z,1.00
2022-09-28T01:44:42.940Z,1.00
2022-09-28T01:45:08.184Z,1.00
2022-09-28T01:45:32.865Z,1.00
2022-09-28T01:45:59.598Z,1.00
2022-09-28T01:46:23.038Z,1.00
2022-09-28T01:46:50.168Z,1.00
2022-09-28T01:47:14.232Z,1.00
2022-09-28T01:47:40.605Z,1.00
2022-09-28T01:48:05.234Z,1.00
2022-09-28T01:48:31.469Z,1.00
2022-09-28T01:48:55.796Z,1.00
2022-09-28T01:49:20.620Z,1.00
2022-09-28T01:49:45.165Z,1.00
2022-09-28T01:50:13.344Z,1.00
2022-09-28T01:50:38.467Z,1.00
2022-09-28T01:51:02.420Z,1.00
2022-09-28T01:51:28.680Z,1.00
2022-09-28T01:51:58.230Z,1.00
2022-09-28T01:52:23.365Z,1.00
2022-09-28T01:52:50.960Z,1.00
2022-09-28T01:53:16.444Z,1.00
2022-09-28T01:53:41.130Z,1.00
2022-09-28T01:54:07.039Z,1.00
2022-09-28T01:54:31.660Z,1.00
2022-09-28T01:54:56.641Z,1.00
2022-09-28T01:55:24.995Z,1.00
2022-09-28T01:55:49.546Z,1.00
2022-09-28T01:56:18.230Z,1.00
2022-09-28T01:56:43.077Z,1.00
2022-09-28T01:57:08.154Z,1.00
2022-09-28T01:57:34.766Z,1.00
2022-09-28T01:57:59.694Z,1.00
2022-09-28T01:58:24.956Z,1.00
2022-09-28T01:58:51.746Z,1.00
2022-09-28T01:59:15.679Z,1.00
2022-09-28T01:59:43.029Z,1.00
2022-09-28T02:00:07.744Z,1.00
2022-09-28T02:00:30.593Z,1.00
2022-09-28T02:00:59.457Z,1.00
2022-09-28T02:01:24.770Z,1.00
2022-09-28T02:01:49.580Z,1.00
2022-09-28T02:02:14.855Z,1.00
2022-09-28T02:02:39.366Z,1.00
2022-09-28T02:03:05.574Z,1.00
2022-09-28T02:03:32.313Z,1.00
2022-09-28T02:03:57.269Z,1.00
2022-09-28T02:04:21.969Z,1.00
2022-09-28T02:04:50.210Z,3.50
2022-09-28T02:05:17.594Z,3.30
2022-09-28T02:05:42.976Z,7.60
2022-09-28T02:06:08.315Z,9.70
2022-09-28T02:06:33.417Z,10.60
2022-09-28T02:06:58.540Z,11.80
2022-09-28T02:07:22.951Z,13.50
2022-09-28T02:07:47.522Z,16.10
2022-09-28T02:08:12.486Z,17.50
2022-09-28T02:08:36.760Z,18.00
2022-09-28T02:09:00.787Z,19.40
2022-09-28T02:09:24.986Z,20.20
2022-09-28T02:09:51.040Z,21.70
2022-09-28T02:10:16.499Z,22.70
2022-09-28T02:10:41.981Z,23.10
2022-09-28T02:11:06.620Z,23.40
2022-09-28T02:11:32.055Z,24.80
2022-09-28T02:11:56.871Z,25.60
2022-09-28T02:12:21.120Z,25.80
2022-09-28T02:12:45.437Z,26.00
2022-09-28T02:13:10.815Z,26.40
2022-09-28T02:13:34.255Z,27.80
2022-09-28T02:13:59.160Z,29.30
2022-09-28T02:14:21.875Z,30.40
2022-09-28T02:14:47.035Z,30.80
2022-09-28T02:15:12.961Z,30.40
2022-09-28T02:15:37.745Z,32.00
2022-09-28T02:16:03.243Z,31.40
2022-09-28T02:16:30.160Z,29.80
2022-09-28T02:16:56.896Z,29.10
2022-09-28T02:17:20.161Z,27.30
2022-09-28T02:17:42.881Z,22.60
2022-09-28T02:18:05.867Z,22.30
2022-09-28T02:18:28.996Z,23.30
2022-09-28T02:18:51.761Z,22.10
2022-09-28T02:19:16.150Z,19.50
2022-09-28T02:19:38.846Z,17.40
2022-09-28T02:20:04.649Z,16.50
2022-09-28T02:20:27.356Z,16.70
2022-09-28T02:20:53.607Z,16.20
2022-09-28T02:21:18.386Z,19.80
2022-09-28T02:21:43.433Z,19.40
2022-09-28T02:22:13.747Z,17.10
2022-09-28T02:22:40.812Z,18.00
2022-09-28T02:23:03.623Z,17.00
2022-09-28T02:23:26.959Z,16.40
2022-09-28T02:23:52.480Z,16.20
2022-09-28T02:24:21.429Z,15.80
2022-09-28T02:24:47.090Z,15.70
2022-09-28T02:25:11.766Z,15.30
2022-09-28T02:25:40.155Z,16.20
2022-09-28T02:26:04.150Z,14.30
2022-09-28T02:26:32.164Z,11.70
2022-09-28T02:26:59.211Z,12.40
2022-09-28T02:27:26.722Z,13.80
2022-09-28T02:27:52.662Z,13.80
2022-09-28T02:28:15.452Z,13.90
2022-09-28T02:28:38.194Z,13.20
2022-09-28T02:29:01.092Z,13.60
2022-09-28T02:29:23.987Z,14.20
2022-09-28T02:29:46.704Z,13.70
2022-09-28T02:30:10.127Z,13.20
2022-09-28T02:30:33.658Z,13.90
2022-09-28T02:30:56.412Z,14.20
2022-09-28T02:31:19.303Z,13.00
2022-09-28T02:31:42.270Z,13.20
2022-09-28T02:32:05.378Z,14.50
2022-09-28T02:32:28.047Z,14.70
2022-09-28T02:32:53.952Z,14.90
2022-09-28T02:33:19.643Z,13.80
2022-09-28T02:33:43.674Z,11.90
2022-09-28T02:34:06.604Z,10.30
2022-09-28T02:34:29.265Z,10.40
2022-09-28T02:34:54.480Z,9.70
2022-09-28T02:35:18.026Z,10.20
2022-09-28T02:35:41.761Z,12.50
2022-09-28T02:36:04.802Z,15.00
2022-09-28T02:36:27.869Z,14.10
2022-09-28T02:36:50.592Z,13.70
2022-09-28T02:37:15.726Z,13.40
2022-09-28T02:37:39.031Z,12.40
2022-09-28T02:38:01.817Z,11.30
2022-09-28T02:38:24.464Z,12.90
2022-09-28T02:38:47.205Z,11.70
2022-09-28T02:39:14.126Z,11.50
2022-09-28T02:39:37.053Z,12.60
2022-09-28T02:40:00.068Z,14.50
2022-09-28T02:40:24.092Z,16.20
2022-09-28T02:40:49.665Z,17.80
2022-09-28T02:41:18.562Z,21.40
2022-09-28T02:41:53.131Z,24.10
2022-09-28T02:42:20.390Z,26.90
2022-09-28T02:42:48.712Z,28.90
2022-09-28T02:43:14.590Z,31.70
2022-09-28T02:43:44.021Z,33.70
2022-09-28T02:44:13.319Z,35.40
2022-09-28T02:44:58.117Z,35.90
2022-09-28T02:45:28.153Z,36.50
2022-09-28T02:46:00.559Z,38.00
2022-09-28T02:46:28.653Z,39.20
2022-09-28T02:46:54.075Z,39.30
2022-09-28T02:47:22.576Z,39.60
2022-09-28T02:47:56.800Z,39.70
2022-09-28T02:48:43.648Z,41.00
2022-09-28T02:49:22.130Z,41.90
2022-09-28T02:49:47.195Z,42.10
2022-09-28T02:50:14.717Z,41.90
2022-09-28T02:50:42.635Z,42.80
2022-09-28T02:51:08.959Z,43.80
2022-09-28T02:51:34.401Z,43.30
2022-09-28T02:52:26.027Z,43.00
2022-09-28T02:52:58.461Z,42.40
2022-09-28T02:53:32.005Z,42.70
2022-09-28T02:54:08.096Z,41.10
2022-09-28T02:54:41.436Z,39.90
2022-09-28T02:55:26.839Z,39.70
2022-09-28T02:55:58.386Z,39.50
2022-09-28T02:56:32.966Z,40.30
2022-09-28T02:57:14.000Z,37.80
2022-09-28T02:57:43.255Z,35.80
2022-09-28T02:58:18.476Z,35.00
2022-09-28T02:58:45.133Z,36.20
2022-09-28T02:59:13.184Z,35.30
2022-09-28T02:59:52.968Z,33.80
2022-09-28T03:00:16.968Z,29.80
2022-09-28T03:00:43.732Z,27.90
2022-09-28T03:01:10.764Z,28.00
2022-09-28T03:01:36.000Z,27.70
2022-09-28T03:02:02.286Z,27.00
2022-09-28T03:02:29.153Z,26.70
2022-09-28T03:02:57.712Z,24.40
2022-09-28T03:03:21.902Z,21.10
2022-09-28T03:03:46.568Z,19.20
2022-09-28T03:04:12.488Z,16.80
2022-09-28T03:04:37.553Z,14.10
2022-09-28T03:05:10.081Z,13.30
2022-09-28T03:05:35.688Z,14.10
2022-09-28T03:06:00.513Z,12.80
2022-09-28T03:06:26.237Z,10.70
2022-09-28T03:06:53.197Z,8.30
2022-09-28T03:07:18.793Z,8.40
2022-09-28T03:07:44.943Z,7.60
2022-09-28T03:08:11.523Z,4.30
2022-09-28T03:08:35.996Z,3.20
2022-09-28T03:09:01.116Z,3.60
2022-09-28T03:09:25.972Z,2.50
2022-09-28T03:09:52.960Z,1.90
2022-09-28T03:10:18.099Z,2.30
2022-09-28T03:10:43.699Z,5.00
2022-09-28T03:11:09.048Z,4.30
2022-09-28T03:11:36.260Z,3.30
2022-09-28T03:12:00.073Z,3.70
2022-09-28T03:12:24.220Z,1.00
2022-09-28T03:12:51.702Z,1.00
2022-09-28T03:13:16.960Z,1.00
2022-09-28T03:13:42.033Z,1.00
2022-09-28T03:14:10.686Z,1.00
2022-09-28T03:14:33.360Z,1.00
2022-09-28T03:15:12.486Z,1.00
2022-09-28T03:15:35.770Z,1.00
2022-09-28T03:16:11.036Z,1.00
2022-09-28T03:16:36.373Z,1.00
2022-09-28T03:16:59.080Z,1.00
2022-09-28T03:17:24.000Z,1.00
2022-09-28T03:17:46.750Z,1.00
2022-09-28T03:18:09.490Z,1.00
2022-09-28T03:18:36.019Z,1.00
2022-09-28T03:18:58.720Z,1.00
2022-09-28T03:19:25.131Z,1.00
2022-09-28T03:19:47.792Z,1.00
2022-09-28T03:20:13.376Z,1.00
2022-09-28T03:20:36.159Z,1.00
2022-09-28T03:21:01.280Z,1.00
2022-09-28T03:21:23.936Z,1.00
2022-09-28T03:21:46.625Z,1.00
2022-09-28T03:22:09.441Z,1.00
2022-09-28T03:22:35.422Z,1.00
2022-09-28T03:23:26.191Z,1.00
2022-09-28T03:23:41.455Z,1.00
2022-09-28T03:24:05.998Z,1.00
2022-09-28T03:24:28.731Z,1.00
2022-09-28T03:24:52.609Z,1.00
2022-09-28T03:25:20.878Z,1.00
2022-09-28T03:25:43.521Z,1.00
2022-09-28T03:26:07.509Z,1.00
2022-09-28T03:26:30.213Z,1.00
2022-09-28T03:26:55.132Z,1.00
2022-09-28T03:27:17.993Z,1.00
2022-09-28T03:27:42.233Z,1.00
2022-09-28T03:28:07.488Z,1.00
2022-09-28T03:28:30.267Z,1.00
2022-09-28T03:28:52.956Z,1.00
2022-09-28T03:29:17.942Z,1.00
2022-09-28T03:29:41.064Z,1.00
2022-09-28T03:30:04.317Z,1.00
2022-09-28T03:30:30.297Z,1.00
2022-09-28T03:30:55.210Z,1.00
2022-09-28T03:31:17.874Z,1.00
2022-09-28T03:31:40.648Z,1.00
2022-09-28T03:32:03.386Z,1.00
2022-09-28T03:32:26.017Z,1.00
2022-09-28T03:32:54.871Z,1.00
2022-09-28T03:33:17.593Z,1.00
2022-09-28T03:33:42.696Z,1.00
2022-09-28T03:34:08.901Z,1.00
2022-09-28T03:34:31.542Z,1.00
2022-09-28T03:34:56.076Z,1.00
2022-09-28T03:35:21.331Z,1.00
2022-09-28T03:35:47.042Z,1.00
2022-09-28T03:36:10.091Z,1.00
2022-09-28T03:36:32.813Z,1.00
2022-09-28T03:36:57.731Z,1.00
2022-09-28T03:37:20.402Z,1.00
2022-09-28T03:37:43.122Z,1.00
2022-09-28T03:38:05.900Z,1.00
2022-09-28T03:38:28.663Z,1.00
2022-09-28T03:38:55.627Z,1.00
2022-09-28T03:39:18.554Z,1.00
2022-09-28T03:39:44.472Z,1.00
2022-09-28T03:40:10.162Z,1.00
2022-09-28T03:40:32.910Z,1.00
2022-09-28T03:40:56.156Z,1.00
2022-09-28T03:41:18.902Z,1.00
2022-09-28T03:41:41.682Z,1.00
2022-09-28T03:42:04.530Z,1.00
2022-09-28T03:42:27.427Z,1.00
2022-09-28T03:42:54.536Z,1.00
2022-09-28T03:43:17.188Z,1.00
2022-09-28T03:43:42.247Z,1.00
2022-09-28T03:44:07.209Z,1.00
2022-09-28T03:44:29.928Z,1.00
2022-09-28T03:44:52.972Z,1.00
2022-09-28T03:45:15.682Z,1.30
2022-09-28T03:45:40.792Z,1.00
2022-09-28T03:46:03.753Z,2.30
2022-09-28T03:46:28.677Z,3.40
2022-09-28T03:46:53.612Z,3.90
2022-09-28T03:47:18.068Z,5.60
2022-09-28T03:47:44.796Z,7.20
2022-09-28T03:48:07.531Z,7.00
2022-09-28T03:48:33.435Z,7.60
2022-09-28T03:48:57.940Z,6.10
2022-09-28T03:49:23.077Z,5.40
2022-09-28T03:49:48.015Z,6.00
2022-09-28T03:50:12.963Z,2.90
2022-09-28T03:50:35.655Z,3.90
2022-09-28T03:50:59.255Z,1.00
2022-09-28T03:51:24.305Z,1.00
2022-09-28T03:51:47.600Z,1.00
2022-09-28T03:52:13.269Z,1.00
2022-09-28T03:52:35.980Z,3.30
2022-09-28T03:53:03.535Z,2.50
2022-09-28T03:53:26.361Z,1.00
2022-09-28T03:53:49.016Z,1.00
2022-09-28T03:54:14.717Z,1.00
2022-09-28T03:54:37.447Z,1.00
2022-09-28T03:55:02.997Z,1.00
2022-09-28T03:55:25.616Z,1.00
2022-09-28T03:55:50.560Z,1.00
2022-09-28T03:56:14.096Z,1.00
2022-09-28T03:56:36.701Z,1.00
2022-09-28T03:57:01.653Z,1.00
2022-09-28T03:57:24.381Z,1.00
2022-09-28T03:57:57.477Z,1.10
2022-09-28T03:58:20.656Z,3.50
2022-09-28T03:58:43.645Z,4.70
2022-09-28T03:59:06.324Z,4.50
2022-09-28T03:59:31.195Z,5.60
2022-09-28T03:59:53.874Z,5.00
2022-09-28T04:00:19.990Z,8.90
2022-09-28T04:00:42.734Z,10.80
2022-09-28T04:01:06.666Z,8.10
2022-09-28T04:01:32.534Z,7.90
2022-09-28T04:01:55.365Z,9.50
2022-09-28T04:02:20.704Z,9.50
2022-09-28T04:02:43.344Z,9.90
2022-09-28T04:03:08.366Z,9.30
2022-09-28T04:03:31.687Z,9.30
2022-09-28T04:03:57.429Z,12.40
2022-09-28T04:04:20.153Z,14.40
2022-09-28T04:04:42.940Z,14.80
2022-09-28T04:05:06.473Z,15.60
2022-09-28T04:05:29.120Z,16.50
2022-09-28T04:05:52.111Z,14.00
2022-09-28T04:06:14.979Z,13.90
2022-09-28T04:06:37.714Z,16.00
2022-09-28T04:07:00.510Z,14.40
2022-09-28T04:07:24.088Z,13.40
2022-09-28T04:07:48.692Z,12.90
2022-09-28T04:08:11.349Z,15.00
2022-09-28T04:08:34.096Z,15.70
2022-09-28T04:08:56.935Z,12.70
2022-09-28T04:09:19.525Z,14.10
2022-09-28T04:09:43.439Z,14.30
2022-09-28T04:10:07.344Z,12.30
2022-09-28T04:10:30.151Z,11.20
2022-09-28T04:10:55.509Z,9.70
2022-09-28T04:11:18.215Z,6.80
2022-09-28T04:12:02.374Z,9.00
2022-09-28T04:12:23.674Z,8.80
2022-09-28T04:12:48.790Z,8.50
2022-09-28T04:13:15.429Z,7.10
2022-09-28T04:13:38.273Z,5.00
2022-09-28T04:14:03.418Z,4.20
2022-09-28T04:14:28.346Z,6.50
2022-09-28T04:14:51.078Z,8.20
2022-09-28T04:15:16.473Z,8.50
2022-09-28T04:15:39.209Z,10.60
2022-09-28T04:16:05.447Z,11.80
2022-09-28T04:16:28.374Z,12.90
2022-09-28T04:16:54.396Z,14.50
2022-09-28T04:17:17.119Z,14.60
2022-09-28T04:17:40.322Z,16.90
2022-09-28T04:18:03.210Z,17.50
2022-09-28T04:18:27.044Z,18.50
2022-09-28T04:18:52.943Z,19.00
2022-09-28T04:19:15.950Z,19.40
2022-09-28T04:19:38.659Z,19.80
2022-09-28T04:20:03.313Z,19.30
2022-09-28T04:20:28.609Z,19.10
2022-09-28T04:20:59.669Z,20.70
2022-09-28T04:21:23.343Z,18.80
2022-09-28T04:21:46.088Z,19.70
2022-09-28T04:22:09.762Z,19.80
2022-09-28T04:22:33.128Z,20.10
2022-09-28T04:22:55.828Z,21.30
2022-09-28T04:23:20.483Z,20.70
2022-09-28T04:23:43.229Z,18.40
2022-09-28T04:24:06.069Z,19.20
2022-09-28T04:24:28.869Z,20.10
2022-09-28T04:24:51.536Z,21.90
2022-09-28T04:25:14.244Z,22.50
2022-09-28T04:25:39.687Z,22.00
2022-09-28T04:26:02.473Z,23.20
2022-09-28T04:26:28.479Z,22.40
2022-09-28T04:26:51.317Z,21.70
2022-09-28T04:27:32.356Z,23.80
2022-09-28T04:28:13.536Z,24.30
2022-09-28T04:28:56.486Z,21.10
2022-09-28T04:29:20.144Z,19.30
2022-09-28T04:29:44.016Z,20.40
2022-09-28T04:30:08.629Z,21.10
2022-09-28T04:30:31.393Z,20.90
2022-09-28T04:30:54.007Z,19.90
2022-09-28T04:31:18.022Z,20.00
2022-09-28T04:31:41.914Z,21.40
2022-09-28T04:32:06.010Z,22.60
2022-09-28T04:32:28.732Z,22.70
2022-09-28T04:32:51.521Z,24.60
2022-09-28T04:33:14.238Z,24.80
2022-09-28T04:33:37.437Z,24.50
2022-09-28T04:34:00.124Z,24.80
2022-09-28T04:34:23.103Z,24.40
2022-09-28T04:34:45.761Z,24.10
2022-09-28T04:35:09.286Z,24.00
2022-09-28T04:35:32.001Z,24.30
2022-09-28T04:35:54.803Z,24.60
2022-09-28T04:36:20.020Z,24.80
2022-09-28T04:36:42.720Z,24.80
2022-09-28T04:37:05.446Z,24.70
2022-09-28T04:37:31.333Z,25.20
2022-09-28T04:37:54.076Z,26.10
2022-09-28T04:38:26.920Z,26.20
2022-09-28T04:39:00.328Z,26.40
2022-09-28T04:39:24.251Z,27.10
2022-09-28T04:39:48.622Z,27.40
2022-09-28T04:40:11.735Z,27.60
2022-09-28T04:40:34.559Z,27.90
2022-09-28T04:40:57.405Z,28.00
2022-09-28T04:41:20.175Z,28.70
2022-09-28T04:41:42.871Z,29.40
2022-09-28T04:42:05.667Z,31.40
2022-09-28T04:42:28.351Z,30.50
2022-09-28T04:42:56.377Z,30.50
2022-09-28T04:43:20.150Z,30.40
2022-09-28T04:43:46.376Z,31.40
2022-09-28T04:44:09.380Z,32.60
2022-09-28T04:44:32.118Z,32.90
2022-09-28T04:44:58.076Z,32.80
2022-09-28T04:45:20.902Z,31.80
2022-09-28T04:45:43.575Z,31.80
2022-09-28T04:46:09.096Z,31.40
2022-09-28T04:46:31.859Z,31.40
2022-09-28T04:46:55.786Z,31.70
2022-09-28T04:47:18.566Z,31.90
2022-09-28T04:47:41.281Z,32.50
2022-09-28T04:48:06.268Z,32.80
2022-09-28T04:48:29.071Z,33.20
2022-09-28T04:48:51.904Z,32.80
2022-09-28T04:49:14.985Z,33.10
2022-09-28T04:49:38.535Z,33.50
2022-09-28T04:50:01.210Z,33.80
2022-09-28T04:50:23.850Z,33.80
2022-09-28T04:50:54.883Z,33.60
2022-09-28T04:51:17.597Z,33.80
2022-09-28T04:51:40.320Z,34.40
2022-09-28T04:52:02.967Z,34.00
2022-09-28T04:52:26.858Z,34.20
2022-09-28T04:52:49.550Z,34.30
2022-09-28T04:53:12.216Z,34.70
2022-09-28T04:53:35.558Z,35.30
2022-09-28T04:53:58.313Z,35.90
2022-09-28T04:54:21.010Z,36.80
2022-09-28T04:54:46.812Z,36.50
2022-09-28T04:55:12.007Z,36.10
2022-09-28T04:55:34.837Z,36.00
2022-09-28T04:55:58.395Z,35.50
2022-09-28T04:56:21.119Z,34.50
2022-09-28T04:56:43.810Z,35.10
2022-09-28T04:57:06.410Z,35.70
2022-09-28T04:57:29.103Z,36.50
2022-09-28T04:57:51.805Z,36.50
2022-09-28T04:58:14.479Z,36.60
2022-09-28T04:58:37.185Z,36.40
2022-09-28T04:59:01.304Z,36.50
2022-09-28T04:59:24.338Z,36.70
2022-09-28T04:59:47.210Z,37.00
2022-09-28T05:00:12.970Z,35.80
2022-09-28T05:00:35.776Z,36.00
2022-09-28T05:00:59.377Z,36.70
2022-09-28T05:01:24.409Z,37.10
2022-09-28T05:01:47.705Z,37.80
2022-09-28T05:02:11.138Z,37.70
2022-09-28T05:02:34.931Z,36.40
2022-09-28T05:02:57.675Z,36.70
2022-09-28T05:03:21.145Z,37.50
2022-09-28T05:03:43.848Z,37.00
2022-09-28T05:04:06.561Z,37.60
2022-09-28T05:04:30.911Z,36.80
2022-09-28T05:04:55.531Z,35.90
2022-09-28T05:05:18.230Z,34.50
2022-09-28T05:05:46.967Z,33.90
2022-09-28T05:06:15.240Z,34.20
2022-09-28T05:06:37.912Z,35.00
2022-09-28T05:07:02.930Z,36.30
2022-09-28T05:07:26.423Z,36.80
2022-09-28T05:07:51.828Z,34.70
2022-09-28T05:08:14.553Z,34.90
2022-09-28T05:08:37.273Z,33.30
2022-09-28T05:08:59.987Z,31.80
2022-09-28T05:09:22.720Z,32.00
2022-09-28T05:09:45.442Z,31.40
2022-09-28T05:10:09.445Z,29.40
2022-09-28T05:10:32.162Z,28.00
2022-09-28T05:10:58.406Z,27.50
2022-09-28T05:11:21.807Z,24.00
2022-09-28T05:11:44.467Z,21.60
2022-09-28T05:12:08.562Z,23.10
2022-09-28T05:12:31.192Z,23.80
2022-09-28T05:12:57.110Z,21.40
2022-09-28T05:13:21.141Z,18.10
2022-09-28T05:13:45.571Z,12.80
2022-09-28T05:14:11.256Z,8.80
2022-09-28T05:14:36.410Z,7.20
2022-09-28T05:14:59.030Z,7.00
2022-09-28T05:15:22.010Z,1.00
2022-09-28T05:15:44.657Z,1.00
2022-09-28T05:16:10.258Z,1.00
2022-09-28T05:16:34.125Z,1.00
2022-09-28T05:16:57.226Z,1.00
2022-09-28T05:17:20.155Z,1.00
2022-09-28T05:17:42.917Z,1.00
2022-09-28T05:18:08.835Z,1.00
2022-09-28T05:18:31.496Z,1.00
2022-09-28T05:18:58.728Z,1.00
2022-09-28T05:19:21.442Z,1.00
2022-09-28T05:19:44.221Z,99.90
2022-09-28T05:20:09.125Z,99.90
2022-09-28T05:20:31.762Z,1.00
2022-09-28T05:20:54.536Z,99.90
2022-09-28T05:21:19.860Z,99.90
2022-09-28T05:21:44.690Z,99.90
2022-09-28T05:22:11.716Z,99.90
2022-09-28T05:22:34.471Z,99.90
2022-09-28T05:22:59.947Z,99.90
2022-09-28T05:23:22.742Z,99.90
2022-09-28T05:23:46.720Z,99.90
2022-09-28T05:24:10.415Z,49.10
2022-09-28T05:24:33.140Z,9.20
2022-09-28T05:24:58.355Z,1.00
2022-09-28T05:25:21.073Z,1.00
2022-09-28T05:25:46.161Z,1.00
2022-09-28T05:26:08.890Z,1.00
2022-09-28T05:26:31.582Z,1.00
2022-09-28T05:26:54.376Z,1.00
2022-09-28T05:27:17.175Z,1.00
2022-09-28T05:27:40.056Z,1.00
2022-09-28T05:28:03.537Z,1.00
2022-09-28T05:28:28.137Z,1.00
2022-09-28T05:28:51.185Z,22.00
2022-09-28T05:29:15.404Z,59.80
2022-09-28T05:29:38.124Z,85.90
2022-09-28T05:30:00.776Z,99.90
2022-09-28T05:30:23.519Z,99.90
2022-09-28T05:30:46.513Z,99.90
2022-09-28T05:31:09.501Z,99.90